Página principal
METAR-TAF:

METAR-TAF

Aeroportos :

Aeroporto Internacional de Cartum

Cartum, Sudão

latitude: 15-36N, longitude: 032-33E, altura: 382 m

Observação actual do tempo

O boletim foi feito há 24 minutos, às 00:30 UTC
Vento 2 kt de sul
Temperatura 29°C
Humidade 33%
Pressão 1007 hPa
Visibilidade: 6000 m

METAR: HSSS 220030Z 17002KT 6000 29/11 Q1007 TEMPO 4000

Hora: 03:54 (00:54 UTC)

Previsão

O boletim foi feito há 1 hora e 54 minutos, às 23:00 UTC
Previsão válida de 22 às 00 UTC a 23 às 06 UTC
Vento 6 kt de este com rajadas de 16 kt
Visibilidade 10 km ou mais
sem nuvens abaixo de 1500 metros e sem cumulonimbus
Temporariamente
de 22 às 03 UTC a 22 às 06 UTC
Visibilidade: 5000 m
bruma

TAF: HSSS 212300Z 2200/2306 09006G16KT CAVOK TEMPO 2203/2206 5000 HZ

Observações e previsões do tempo de mais de 4000 aeroportos (mensagens METAR e TAF).

As estações disponíveis são os pontos amarelos e vermelhos sobre o mapa.

Mova o rato sobre o mapa para ver o nome da estação.

Depois clique no ponto para visualizar as observações e previsões meteorológicas.

Para alterar o mapa : clique nos botões verdes com uma cruz preta para aumentar o zoom; no botão verde com uma pitada de zoom; ou nas setas verdes para mapas adjacentes.


METAR-TAF: